createdAt,value
2019-03-06T01:07:34.227Z,88.20
2019-03-06T01:08:10.650Z,86.90
2019-03-06T01:08:44.734Z,87.50
2019-03-06T01:10:19.558Z,86.30
2019-03-06T01:11:08.710Z,86.30
2019-03-06T01:11:57.670Z,86.80
2019-03-06T01:12:46.873Z,86.70
2019-03-06T01:13:36.053Z,86.60
2019-03-06T01:14:24.931Z,86.50
2019-03-06T01:15:13.777Z,86.50
2019-03-06T01:16:02.851Z,86.50
2019-03-06T01:16:52.201Z,86.40
2019-03-06T01:17:41.224Z,86.40
2019-03-06T01:18:30.076Z,86.30
2019-03-06T01:19:18.879Z,86.30
2019-03-06T01:20:07.797Z,86.30
2019-03-06T01:20:57.284Z,86.10
2019-03-06T01:21:47.521Z,86.10
2019-03-06T01:22:36.698Z,85.80
2019-03-06T01:24:23.749Z,84.80
2019-03-06T01:25:12.541Z,85.10
2019-03-06T01:26:01.415Z,85.20
2019-03-06T01:26:50.389Z,84.90
2019-03-06T01:27:39.427Z,84.00
2019-03-06T01:28:28.269Z,83.70
2019-03-06T01:29:17.241Z,83.50
2019-03-06T01:30:06.211Z,83.70
2019-03-06T01:30:55.109Z,82.60
2019-03-06T01:31:44.204Z,82.40
2019-03-06T01:32:32.894Z,82.20
2019-03-06T01:33:21.648Z,82.30
2019-03-06T01:34:10.689Z,82.10
2019-03-06T01:34:59.502Z,82.20
2019-03-06T01:35:48.627Z,81.30
2019-03-06T01:36:37.389Z,81.90
2019-03-06T01:37:25.896Z,81.20
2019-03-06T01:38:14.721Z,81.40
2019-03-06T01:39:03.568Z,81.00
2019-03-06T01:39:53.817Z,80.50
2019-03-06T01:40:42.720Z,80.80
2019-03-06T01:41:33.189Z,80.70
2019-03-06T01:42:22.445Z,80.10
2019-03-06T02:42:16.644Z,70.40
2019-03-06T02:43:05.828Z,69.50
2019-03-06T02:43:54.426Z,68.80
2019-03-06T02:44:43.299Z,69.00
2019-03-06T02:45:32.101Z,69.00
2019-03-06T02:46:21.209Z,69.10
2019-03-06T02:47:10.198Z,69.10
2019-03-06T02:48:00.506Z,69.10
2019-03-06T02:48:50.593Z,68.50
2019-03-06T02:49:40.916Z,68.50
2019-03-06T02:50:30.243Z,68.40
2019-03-06T02:51:21.376Z,68.40
2019-03-06T02:52:11.924Z,68.40
2019-03-06T02:53:01.695Z,68.40
2019-03-06T02:53:52.436Z,68.40
2019-03-06T02:54:42.506Z,68.50
2019-03-06T02:55:33.033Z,67.70
2019-03-06T02:56:24.403Z,67.70
2019-03-06T02:57:15.099Z,68.00
2019-03-06T02:58:09.165Z,67.90
2019-03-06T02:59:01.598Z,68.10
2019-03-06T02:59:51.426Z,68.10
2019-03-06T03:00:42.003Z,68.00
2019-03-06T03:01:31.599Z,69.20
2019-03-06T03:02:22.530Z,68.30
2019-03-06T03:03:12.053Z,67.90
2019-03-06T03:04:01.240Z,67.80
2019-03-06T03:04:50.572Z,67.60
2019-03-06T03:05:39.991Z,68.00
2019-03-06T03:06:29.213Z,67.10
2019-03-06T03:07:18.528Z,67.80
2019-03-06T03:08:07.687Z,67.70
2019-03-06T03:08:57.204Z,66.90
2019-03-06T03:09:46.104Z,66.90
2019-03-06T03:10:37.071Z,66.70
2019-03-06T03:11:26.379Z,67.00
2019-03-06T03:12:15.454Z,66.70
2019-03-06T03:13:04.842Z,66.70
2019-03-06T03:13:54.450Z,66.50
2019-03-06T03:14:44.948Z,66.40
2019-03-06T03:15:35.071Z,65.50
2019-03-06T03:16:24.651Z,66.20
2019-03-06T03:17:13.660Z,66.20
2019-03-06T03:18:02.673Z,65.90
2019-03-06T03:18:52.074Z,66.20
2019-03-06T03:19:41.423Z,66.40
2019-03-06T03:20:30.446Z,66.30
2019-03-06T03:22:10.180Z,66.60
2019-03-06T03:22:59.240Z,67.00
2019-03-06T03:23:49.164Z,66.80
2019-03-06T03:24:38.266Z,67.20
2019-03-06T03:25:27.438Z,67.10
2019-03-06T03:26:16.412Z,67.10
2019-03-06T03:27:04.910Z,66.90
2019-03-06T03:27:54.799Z,67.00
2019-03-06T03:28:43.770Z,67.00
2019-03-06T03:29:33.079Z,66.60
2019-03-06T03:30:22.257Z,66.80
2019-03-06T03:31:11.861Z,66.90
2019-03-06T03:32:01.508Z,66.20
2019-03-06T03:32:50.783Z,66.30
2019-03-06T03:33:40.090Z,66.60
2019-03-06T03:34:29.183Z,67.10
2019-03-06T03:35:18.641Z,66.70
2019-03-06T03:36:08.537Z,66.90
2019-03-06T03:36:58.788Z,67.00
2019-03-06T03:37:47.740Z,66.60
2019-03-06T03:38:37.011Z,66.70
2019-03-06T03:39:25.823Z,67.20
2019-03-06T03:40:15.226Z,67.50
2019-03-06T03:41:04.186Z,67.10
2019-03-06T03:41:52.884Z,67.30
2019-03-06T03:42:42.199Z,67.20
2019-03-06T03:58:28.828Z,66.50
2019-03-06T03:59:19.176Z,67.00
2019-03-06T06:14:06.729Z,67.00
2019-03-06T06:14:56.129Z,65.50
2019-03-06T06:15:45.866Z,64.20
2019-03-06T06:16:34.776Z,63.70
2019-03-06T06:17:23.710Z,64.60
2019-03-06T06:18:12.697Z,66.40
2019-03-06T06:19:01.839Z,65.50
2019-03-06T06:19:51.139Z,65.20
2019-03-06T06:21:01.473Z,64.10
2019-03-06T06:21:50.938Z,64.40
2019-03-06T06:22:40.869Z,63.30
2019-03-06T06:23:31.538Z,60.00
2019-03-06T06:24:23.078Z,58.90
2019-03-06T06:25:13.675Z,57.50
2019-03-06T06:26:02.482Z,58.10
2019-03-06T06:26:51.455Z,58.40
2019-03-06T06:27:40.449Z,58.50
2019-03-06T06:28:29.222Z,58.10
2019-03-06T06:29:19.948Z,57.90
2019-03-06T06:30:10.094Z,57.80
2019-03-06T06:31:01.666Z,57.70
2019-03-06T06:31:52.043Z,57.90
2019-03-06T06:32:43.452Z,57.90
2019-03-06T06:33:35.034Z,58.10
2019-03-06T06:34:25.432Z,58.30
2019-03-06T06:35:15.866Z,58.30
2019-03-06T06:36:06.506Z,58.20
2019-03-06T06:36:56.844Z,57.60
2019-03-06T06:37:46.839Z,58.40
2019-03-06T06:38:37.518Z,58.80
2019-03-06T06:39:28.066Z,59.20
2019-03-06T06:40:18.554Z,58.80
2019-03-06T06:41:09.458Z,58.90
2019-03-06T06:41:59.781Z,59.00
2019-03-06T06:42:50.031Z,58.40
2019-03-06T06:43:41.597Z,58.60
2019-03-06T06:44:30.789Z,58.60
2019-03-06T06:45:20.834Z,58.50
2019-03-06T06:46:13.641Z,58.50
2019-03-06T06:47:03.792Z,58.40
2019-03-06T06:49:18.510Z,58.20
2019-03-06T06:50:07.774Z,58.00
2019-03-06T06:51:01.626Z,58.20
2019-03-06T06:51:49.948Z,58.00
2019-03-06T06:52:41.763Z,57.20
2019-03-06T06:53:32.455Z,57.90
2019-03-06T06:54:25.804Z,58.00
2019-03-06T06:55:16.463Z,58.00
2019-03-06T06:56:06.768Z,58.20
2019-03-06T06:57:01.394Z,58.30
2019-03-06T06:57:51.055Z,57.90
2019-03-06T06:58:41.818Z,59.10
2019-03-06T06:59:35.008Z,58.80
2019-03-06T07:00:25.796Z,58.50
2019-03-06T07:01:15.985Z,58.20
2019-03-06T07:02:05.071Z,58.10
2019-03-06T07:02:54.184Z,58.50
2019-03-06T07:03:43.105Z,58.50
2019-03-06T07:04:32.308Z,59.00
2019-03-06T07:05:21.534Z,59.60
2019-03-06T07:06:11.075Z,59.80
2019-03-06T07:07:00.522Z,59.00
2019-03-06T07:07:49.542Z,58.50
2019-03-06T07:08:38.974Z,57.30
2019-03-06T07:09:27.899Z,57.20
2019-03-06T07:10:17.214Z,56.90
2019-03-06T07:11:06.456Z,57.00
2019-03-06T07:11:55.609Z,56.90
2019-03-06T07:12:44.578Z,57.50
2019-03-06T07:13:33.908Z,57.90
2019-03-06T07:14:22.655Z,58.10
2019-03-06T07:15:11.906Z,58.00
2019-03-06T07:16:02.229Z,57.70
2019-03-06T07:16:51.445Z,57.40
2019-03-06T07:17:41.278Z,57.20
2019-03-06T07:18:30.226Z,57.80
2019-03-06T07:19:20.971Z,57.40
2019-03-06T07:20:10.571Z,57.10
2019-03-06T07:20:59.866Z,56.90
2019-03-06T07:21:48.752Z,56.90
2019-03-06T07:22:38.918Z,57.00
2019-03-06T07:23:27.850Z,56.80
2019-03-06T07:24:17.191Z,56.70
2019-03-06T07:25:06.346Z,56.00
2019-03-06T07:25:55.610Z,56.30
2019-03-06T07:26:45.111Z,56.90
2019-03-06T07:27:34.386Z,57.10
2019-03-06T07:28:23.681Z,57.00
2019-03-06T07:29:13.131Z,56.70
2019-03-06T07:30:02.563Z,56.20
2019-03-06T07:30:52.446Z,55.50
2019-03-06T07:31:41.210Z,55.50
2019-03-06T07:32:30.169Z,56.30
2019-03-06T07:33:19.342Z,55.60
2019-03-06T07:34:08.785Z,55.20
2019-03-06T07:34:58.122Z,54.30
2019-03-06T07:35:47.173Z,53.20
2019-03-06T07:36:36.193Z,52.80
2019-03-06T07:37:28.597Z,53.00
2019-03-06T07:38:16.692Z,53.20
2019-03-06T07:39:06.029Z,53.30
2019-03-06T07:39:56.209Z,53.60
2019-03-06T07:40:45.145Z,53.90
2019-03-06T07:41:34.338Z,54.00
2019-03-06T07:42:23.441Z,54.20
2019-03-06T07:43:12.351Z,53.90
2019-03-06T07:44:01.338Z,54.10
2019-03-06T07:44:50.323Z,54.20
2019-03-06T07:45:39.108Z,54.20
2019-03-06T07:46:29.388Z,54.20
2019-03-06T07:47:18.331Z,54.30
2019-03-06T07:48:07.559Z,54.50
2019-03-06T07:48:56.750Z,54.40
2019-03-06T07:49:45.946Z,54.50
2019-03-06T07:50:34.766Z,54.40
2019-03-06T07:51:23.689Z,54.20
2019-03-06T07:52:12.973Z,54.30
2019-03-06T07:53:01.628Z,54.50
2019-03-06T07:53:52.089Z,54.80
2019-03-06T07:54:41.382Z,54.90
2019-03-06T07:55:30.345Z,54.90
2019-03-06T07:56:19.323Z,55.00
2019-03-06T07:57:08.407Z,54.30
2019-03-06T07:57:57.558Z,54.00
2019-03-06T07:58:46.608Z,53.90
2019-03-06T07:59:36.048Z,54.50
2019-03-06T08:00:25.376Z,54.80
2019-03-06T08:02:57.225Z,54.30
2019-03-06T08:03:46.752Z,55.50
2019-03-06T08:04:35.687Z,55.40
2019-03-06T08:05:24.790Z,55.80
2019-03-06T08:06:13.528Z,55.80
2019-03-06T08:07:02.702Z,55.80
2019-03-06T08:07:52.315Z,55.70
2019-03-06T08:08:42.727Z,55.60
2019-03-06T08:09:31.884Z,55.40
2019-03-06T08:10:21.371Z,55.40
2019-03-06T08:11:10.534Z,55.30
2019-03-06T08:12:00.207Z,55.50
2019-03-06T08:12:49.538Z,55.90
2019-03-06T08:13:40.143Z,55.90
2019-03-06T08:14:29.156Z,55.50
2019-03-06T08:15:17.878Z,55.30
2019-03-06T08:16:06.855Z,55.10
2019-03-06T08:16:56.356Z,54.70
2019-03-06T08:17:46.251Z,54.10
2019-03-06T08:18:35.574Z,53.40
2019-03-06T08:19:24.878Z,54.10
2019-03-06T08:20:14.204Z,53.60
2019-03-06T08:21:03.937Z,53.40
2019-03-06T08:21:53.897Z,53.40
2019-03-06T08:22:43.596Z,53.30
2019-03-06T08:23:32.825Z,53.30
2019-03-06T08:24:22.382Z,53.20
2019-03-06T08:25:12.227Z,53.20
2019-03-06T08:26:01.313Z,53.20
2019-03-06T08:26:51.168Z,53.10
2019-03-06T08:27:40.355Z,53.20
2019-03-06T08:28:29.360Z,53.10
2019-03-06T08:29:18.517Z,53.20
2019-03-06T08:30:08.230Z,53.20
2019-03-06T08:30:58.594Z,53.40
2019-03-06T08:31:48.031Z,53.20
2019-03-06T08:32:38.203Z,53.00
2019-03-06T08:33:27.544Z,52.60
2019-03-06T08:34:16.920Z,52.30
2019-03-06T08:35:05.784Z,52.80
2019-03-06T08:35:54.723Z,53.40
2019-03-06T08:36:43.018Z,53.70
2019-03-06T08:37:32.295Z,52.70
2019-03-06T08:38:22.613Z,51.50
2019-03-06T08:39:13.009Z,51.20
2019-03-06T08:40:03.546Z,51.60
2019-03-06T08:41:03.598Z,51.80
2019-03-06T08:41:45.863Z,51.70
2019-03-06T08:42:36.011Z,51.90
2019-03-06T08:43:27.692Z,52.40
2019-03-06T08:44:18.295Z,52.70
2019-03-06T08:45:08.267Z,53.30
2019-03-06T08:45:58.716Z,54.20
2019-03-06T08:46:48.846Z,54.70
2019-03-06T08:47:38.566Z,54.70
2019-03-06T08:48:29.008Z,54.80
2019-03-06T08:49:18.923Z,54.40
2019-03-06T08:50:09.738Z,54.20
2019-03-06T08:51:00.488Z,54.40
2019-03-06T08:51:51.514Z,54.50
2019-03-06T08:52:41.249Z,54.40
2019-03-06T08:53:31.694Z,54.40
2019-03-06T08:54:20.859Z,54.20
2019-03-06T08:55:11.200Z,53.80
2019-03-06T08:56:01.620Z,53.20
2019-03-06T08:56:52.545Z,53.40
2019-03-06T08:57:44.012Z,52.50
2019-03-06T08:58:34.956Z,52.10
2019-03-06T08:59:24.452Z,53.00
2019-03-06T09:00:13.189Z,53.20
2019-03-06T09:01:02.427Z,53.30
2019-03-06T09:02:00.449Z,53.50
2019-03-06T09:03:36.923Z,53.60
2019-03-06T09:04:25.991Z,54.10
2019-03-06T09:05:14.562Z,54.70
2019-03-06T09:06:03.733Z,55.30
2019-03-06T09:06:53.793Z,55.60
2019-03-06T09:07:45.801Z,55.70
2019-03-06T09:08:35.822Z,55.70
2019-03-06T09:09:24.871Z,55.80
2019-03-06T09:10:13.645Z,56.00
2019-03-06T09:11:03.493Z,56.00
2019-03-06T09:11:52.928Z,56.20
2019-03-06T09:12:44.109Z,55.80
2019-03-06T09:13:34.799Z,57.30
2019-03-06T09:14:25.601Z,57.10
2019-03-06T09:15:16.105Z,56.30
2019-03-06T09:16:05.793Z,56.70
2019-03-06T09:18:18.510Z,57.60
2019-03-06T09:19:16.540Z,57.60
2019-03-06T09:20:08.205Z,58.10
2019-03-06T09:20:57.619Z,58.50
